KEED/EED METAR and TAF weather

Enter ICAO airport designator
Station Type Date Time Source
KEED METAR 2018/01/22 10:56 UTC NOAA

KEED 221056Z AUTO 00000KT 10SM CLR 06/M07 A3029 RMK AO2 SLP250 T00611072 $


Station Type Date Time Source
KEED Decoded METAR 2018/01/22 10:56 UTC NOAA

NEEDLES AIRPORT, CA, United States (KEED) 34-46N 114-37W
Jan 22, 2018 - 05:56 AM EST / 2018.01.22 1056 UTC
Wind: Calm:0
Visibility: 10 mile(s):0
Sky conditions: clear
Temperature: 43.0 F (6.1 C)
Dew Point: 19.0 F (-7.2 C)
Relative Humidity: 37%
Pressure (altimeter): 30.29 in. Hg (1025 hPa)
ob: KEED 221056Z AUTO 00000KT 10SM CLR 06/M07 A3029 RMK AO2 SLP250 T00611072
cycle: 11

Station Type Date Time Source
KEED TAF 2018/01/22 12:33 UTC NOAA

TAF KEED 221130Z 2212/2312 VRB05KT P6SM BKN250
FM221800 01014G22KT P6SM SCT250
FM230100 34010KT P6SM SCT250


Example: see airport list